Time;durP1;ratioP1;P1;durP2;ratioP2;P2;SDS_P1;SDS_P2;PMS_P1;PMS_P2;Temp;Humidity;BMP_temperature;BMP_pressure;BME280_temperature;BME280_humidity;BME280_pressure;Samples;Min_cycle;Max_cycle;Signal;HPM_P1;HPM_P2
2023/03/07 00:00:16;;;;;;;33.78;22.90;;;;;;;4.32;66.62;99279.75;688150;28;1132;-86
2023/03/07 00:00:36;;;;;;;32.63;22.67;;;;;;;4.33;66.41;99276.31;685558;28;1028;-86
2023/03/07 00:00:57;;;;;;;33.78;23.08;;;;;;;4.33;66.29;99280.59;690926;28;1068;-86
2023/03/07 00:01:26;;;;;;;33.90;23.80;;;;;;;4.37;66.42;99293.66;688066;28;1201;-86
2023/03/07 00:01:47;;;;;;;32.67;23.58;;;;;;;4.31;66.50;99277.09;688071;28;1072;-86
2023/03/07 00:02:08;;;;;;;33.33;23.98;;;;;;;4.32;66.65;99271.09;690899;28;1276;-86
2023/03/07 00:02:29;;;;;;;35.03;24.50;;;;;;;4.31;66.49;99285.75;685574;28;1173;-86
2023/03/07 00:02:50;;;;;;;36.50;24.90;;;;;;;4.35;66.62;99295.31;682729;28;1408;-86
2023/03/07 00:03:15;;;;;;;35.00;24.05;;;;;;;4.30;66.91;99275.38;688190;28;1217;-86
2023/03/07 00:03:37;;;;;;;34.22;23.48;;;;;;;4.30;66.39;99270.19;690851;28;1107;-86
2023/03/07 00:03:58;;;;;;;34.58;24.00;;;;;;;4.37;66.53;99283.31;688040;28;1090;-86
2023/03/07 00:04:19;;;;;;;36.15;24.95;;;;;;;4.28;66.70;99277.88;685597;28;1093;-86
2023/03/07 00:04:43;;;;;;;35.85;24.55;;;;;;;4.28;66.49;99275.31;688115;28;1275;-86
2023/03/07 00:05:06;;;;;;;35.15;23.98;;;;;;;4.31;66.69;99280.59;688075;28;1276;-86
2023/03/07 00:05:26;;;;;;;34.03;22.92;;;;;;;4.29;66.96;99279.63;688399;28;1089;-86
2023/03/07 00:05:47;;;;;;;34.67;23.33;;;;;;;4.24;66.95;99265.72;688061;28;1099;-86
2023/03/07 00:06:10;;;;;;;34.25;22.90;;;;;;;4.30;66.81;99283.09;685401;28;1051;-86
2023/03/07 00:06:31;;;;;;;34.38;23.65;;;;;;;4.26;66.75;99284.72;690931;28;1173;-86
2023/03/07 00:06:54;;;;;;;32.97;23.60;;;;;;;4.32;67.02;99269.41;690571;28;1240;-86
2023/03/07 00:07:15;;;;;;;34.17;24.02;;;;;;;4.31;66.75;99288.34;688211;28;1001;-86
2023/03/07 00:07:36;;;;;;;35.42;24.15;;;;;;;4.34;66.59;99272.03;693496;28;1186;-87
2023/03/07 00:07:57;;;;;;;36.10;23.80;;;;;;;4.41;66.71;99291.19;690658;28;1309;-86
2023/03/07 00:08:18;;;;;;;35.28;23.92;;;;;;;4.28;66.77;99277.88;688121;28;1267;-86
2023/03/07 00:08:38;;;;;;;36.57;24.47;;;;;;;4.34;66.72;99278.06;688264;28;1118;-86
2023/03/07 00:09:01;;;;;;;38.55;25.50;;;;;;;4.37;66.40;99288.47;682909;29;1918;-86
2023/03/07 00:09:21;;;;;;;37.80;25.13;;;;;;;4.30;66.48;99275.38;691397;28;1387;-86
2023/03/07 00:09:42;;;;;;;35.20;24.15;;;;;;;4.35;66.71;99295.31;691325;28;1101;-85
2023/03/07 00:10:03;;;;;;;33.88;23.92;;;;;;;4.29;66.81;99268.44;691324;28;1163;-87
2023/03/07 00:10:24;;;;;;;34.88;23.83;;;;;;;4.24;66.75;99276.91;685911;28;899;-86
2023/03/07 00:10:45;;;;;;;35.00;23.92;;;;;;;4.31;66.89;99278.00;688559;28;1008;-86
2023/03/07 00:11:07;;;;;;;34.45;23.60;;;;;;;4.33;66.52;99280.59;691451;28;1272;-87
2023/03/07 00:11:28;;;;;;;32.35;23.40;;;;;;;4.30;66.94;99277.94;686040;28;1287;-86
2023/03/07 00:11:49;;;;;;;33.45;23.17;;;;;;;4.35;67.07;99287.56;691325;28;1157;-86
2023/03/07 00:12:10;;;;;;;34.10;23.45;;;;;;;4.30;66.98;99271.06;688663;28;1106;-86
2023/03/07 00:12:30;;;;;;;34.00;23.42;;;;;;;4.39;66.76;99285.97;691347;28;1322;-86
2023/03/07 00:12:51;;;;;;;34.15;23.73;;;;;;;4.33;66.66;99278.91;686045;28;1223;-86
2023/03/07 00:13:11;;;;;;;35.47;23.67;;;;;;;4.33;66.76;99276.31;694213;28;1114;-86
2023/03/07 00:13:33;;;;;;;36.65;23.80;;;;;;;4.37;67.10;99298.81;688769;28;1000;-86
2023/03/07 00:13:54;;;;;;;37.70;23.73;;;;;;;4.38;66.61;99285.06;688676;28;1154;-86
2023/03/07 00:14:15;;;;;;;36.60;23.63;;;;;;;4.37;66.60;99303.97;686029;28;1205;-86
2023/03/07 00:14:36;;;;;;;35.72;23.92;;;;;;;4.29;66.65;99264.13;691289;28;1185;-85
2023/03/07 00:14:56;;;;;;;35.03;23.77;;;;;;;4.28;66.97;99262.41;688656;28;1420;-86
2023/03/07 00:15:17;;;;;;;35.08;23.80;;;;;;;4.31;66.62;99271.94;691022;28;1004;-86
2023/03/07 00:15:39;;;;;;;35.63;24.20;;;;;;;4.33;66.71;99278.91;688670;28;1295;-86
2023/03/07 00:16:05;;;;;;;37.10;25.20;;;;;;;4.32;66.95;99276.28;686020;28;774;-86
2023/03/07 00:16:26;;;;;;;37.60;25.13;;;;;;;4.37;66.87;99273.00;691478;28;1152;-86
2023/03/07 00:16:50;;;;;;;37.00;24.45;;;;;;;4.32;66.95;99273.69;685713;28;1201;-86
2023/03/07 00:17:10;;;;;;;37.30;24.85;;;;;;;4.33;66.79;99272.84;680697;28;1175;-86
2023/03/07 00:17:31;;;;;;;36.72;24.77;;;;;;;4.42;66.76;99290.34;686076;28;1036;-86
2023/03/07 00:17:51;;;;;;;37.87;25.37;;;;;;;4.32;67.03;99260.78;688575;28;1135;-86
2023/03/07 00:18:12;;;;;;;37.40;25.17;;;;;;;4.34;66.89;99269.44;688636;28;1101;-86
2023/03/07 00:18:33;;;;;;;38.67;25.50;;;;;;;4.37;66.96;99274.72;683256;28;1346;-86
2023/03/07 00:18:54;;;;;;;37.70;25.13;;;;;;;4.33;66.92;99263.41;686005;28;1014;-86
2023/03/07 00:19:14;;;;;;;37.00;25.37;;;;;;;4.29;66.73;99261.56;688640;28;1027;-86
2023/03/07 00:19:35;;;;;;;35.33;24.50;;;;;;;4.33;66.87;99260.84;688764;28;1063;-86
2023/03/07 00:19:55;;;;;;;33.88;24.00;;;;;;;4.38;67.02;99279.91;683258;29;1198;-86
2023/03/07 00:20:16;;;;;;;33.40;23.23;;;;;;;4.37;66.90;99277.28;688667;28;1261;-86
2023/03/07 00:20:36;;;;;;;34.53;24.10;;;;;;;4.31;66.97;99265.09;688709;28;1165;-86
2023/03/07 00:20:59;;;;;;;35.25;24.65;;;;;;;4.41;67.03;99273.09;683204;28;1174;-86
2023/03/07 00:21:21;;;;;;;33.90;24.63;;;;;;;4.42;66.83;99269.69;683358;29;1354;-86
2023/03/07 00:21:42;;;;;;;33.80;23.73;;;;;;;4.36;66.85;99262.63;685933;28;1111;-86
2023/03/07 00:22:02;;;;;;;34.47;23.57;;;;;;;4.35;67.18;99259.16;686065;28;1039;-86
2023/03/07 00:22:23;;;;;;;35.20;23.70;;;;;;;4.35;67.08;99256.56;688664;28;1051;-86
2023/03/07 00:22:45;;;;;;;35.83;23.77;;;;;;;4.35;67.07;99254.00;685973;28;1142;-86
2023/03/07 00:23:06;;;;;;;35.63;23.83;;;;;;;4.34;67.04;99260.00;686035;28;1087;-86
2023/03/07 00:23:26;;;;;;;37.55;24.45;;;;;;;4.34;66.95;99244.50;686017;28;1272;-86
2023/03/07 00:23:47;;;;;;;35.87;24.60;;;;;;;4.34;67.25;99252.25;688579;28;1163;-86
2023/03/07 00:24:08;;;;;;;37.25;25.30;;;;;;;4.35;67.32;99248.84;688792;28;1055;-86
2023/03/07 00:24:29;;;;;;;38.08;26.02;;;;;;;4.40;67.16;99261.03;693955;28;1058;-85
2023/03/07 00:24:49;;;;;;;38.13;25.90;;;;;;;4.44;67.26;99261.16;699562;28;1107;-86
2023/03/07 00:25:10;;;;;;;37.55;25.52;;;;;;;4.40;67.04;99248.97;691255;28;1318;-86
2023/03/07 00:25:30;;;;;;;38.73;25.17;;;;;;;4.41;67.25;99252.44;685914;28;1461;-86
2023/03/07 00:26:06;;;;;;;38.30;24.77;;;;;;;4.44;67.06;99244.75;691215;28;1302;-85
2023/03/07 00:26:27;;;;;;;36.40;24.30;;;;;;;4.35;67.14;99251.41;688697;28;916;-86
2023/03/07 00:26:48;;;;;;;35.92;24.83;;;;;;;4.40;67.18;99254.13;685764;28;1205;-85
2023/03/07 00:27:09;;;;;;;36.63;25.03;;;;;;;4.40;67.13;99245.53;683359;28;1152;-86
2023/03/07 00:27:31;;;;;;;36.55;25.40;;;;;;;4.42;67.03;99251.59;686001;28;1014;-86
2023/03/07 00:27:51;;;;;;;37.33;25.30;;;;;;;4.44;67.06;99250.81;688062;28;1381;-85
2023/03/07 00:28:12;;;;;;;39.90;25.60;;;;;;;4.46;66.96;99266.34;691149;28;1199;-86
2023/03/07 00:28:33;;;;;;;40.30;25.80;;;;;;;4.50;67.01;99257.84;691472;28;1122;-85
2023/03/07 00:28:54;;;;;;;38.95;25.10;;;;;;;4.53;66.88;99263.09;691347;28;1997;-86
2023/03/07 00:29:15;;;;;;;36.60;24.83;;;;;;;4.41;66.87;99237.78;686065;28;1101;-85
2023/03/07 00:29:35;;;;;;;37.47;24.43;;;;;;;4.42;66.69;99246.44;683384;29;988;-85
2023/03/07 00:29:57;;;;;;;36.03;23.90;;;;;;;4.45;66.86;99264.59;683241;28;1154;-86
2023/03/07 00:30:17;;;;;;;35.63;24.05;;;;;;;4.52;66.75;99251.00;685861;28;1242;-86
2023/03/07 00:30:38;;;;;;;35.15;23.95;;;;;;;4.51;67.07;99250.16;686075;28;1095;-86
2023/03/07 00:31:00;;;;;;;36.90;24.70;;;;;;;4.45;67.00;99243.91;683308;28;1004;-86
2023/03/07 00:31:22;;;;;;;36.55;24.83;;;;;;;4.54;66.65;99262.25;686012;28;1055;-86
2023/03/07 00:31:42;;;;;;;36.55;24.75;;;;;;;4.50;67.24;99250.97;691267;28;1010;-86
2023/03/07 00:32:03;;;;;;;34.73;23.67;;;;;;;4.50;66.96;99260.44;694112;28;1149;-85
2023/03/07 00:32:24;;;;;;;33.05;23.13;;;;;;;4.55;67.18;99256.28;688652;28;1149;-85
2023/03/07 00:32:45;;;;;;;34.72;23.92;;;;;;;4.50;66.97;99243.22;685782;28;1274;-86
2023/03/07 00:33:28;;;;;;;35.70;24.42;;;;;;;4.60;67.01;99265.03;691246;28;1065;-86
2023/03/07 00:33:48;;;;;;;33.50;23.10;;;;;;;4.53;66.80;99245.00;691063;28;1374;-85
2023/03/07 00:34:09;;;;;;;32.78;23.48;;;;;;;4.57;66.74;99244.28;693875;28;1187;-86
2023/03/07 00:34:30;;;;;;;34.25;24.02;;;;;;;4.58;67.05;99251.19;691353;28;1208;-86
2023/03/07 00:34:50;;;;;;;34.00;24.10;;;;;;;4.57;67.07;99251.13;688718;28;1198;-86
2023/03/07 00:35:11;;;;;;;34.80;24.02;;;;;;;4.64;66.84;99255.66;688757;28;1149;-85
2023/03/07 00:35:32;;;;;;;34.78;23.95;;;;;;;4.51;67.22;99241.53;689000;28;1218;-86
2023/03/07 00:35:58;;;;;;;35.27;23.97;;;;;;;4.61;66.93;99251.25;686366;28;1442;-86
2023/03/07 00:36:21;;;;;;;36.17;24.00;;;;;;;4.52;66.99;99238.09;683916;29;1094;-85
2023/03/07 00:36:42;;;;;;;36.28;23.83;;;;;;;4.58;66.75;99245.13;686452;28;1126;-85
2023/03/07 00:37:02;;;;;;;36.05;23.50;;;;;;;4.59;67.02;99247.78;691968;28;1219;-85
2023/03/07 00:37:32;;;;;;;35.83;23.75;;;;;;;4.59;67.10;99250.34;692277;28;1168;-86
2023/03/07 00:37:52;;;;;;;36.40;24.63;;;;;;;4.59;66.88;99237.44;687088;28;1106;-85
2023/03/07 00:38:13;;;;;;;36.67;24.75;;;;;;;4.68;66.85;99246.28;689405;28;949;-85
2023/03/07 00:38:34;;;;;;;35.97;24.17;;;;;;;4.68;66.80;99241.09;692510;28;1109;-86
2023/03/07 00:38:55;;;;;;;37.72;24.13;;;;;;;4.62;66.89;99246.97;689493;28;1097;-86
2023/03/07 00:39:16;;;;;;;36.80;23.58;;;;;;;4.58;66.83;99246.03;686866;28;1084;-85
2023/03/07 00:39:36;;;;;;;36.83;24.17;;;;;;;4.59;66.86;99228.84;689639;28;1082;-85
2023/03/07 00:39:57;;;;;;;35.60;24.13;;;;;;;4.62;67.21;99250.47;692162;28;1214;-85
2023/03/07 00:40:17;;;;;;;36.43;24.30;;;;;;;4.69;67.00;99240.25;692401;28;1098;-85
2023/03/07 00:40:38;;;;;;;34.85;23.92;;;;;;;4.61;66.98;99234.91;692530;28;1264;-85
2023/03/07 00:41:03;;;;;;;33.70;23.35;;;;;;;4.70;66.98;99252.34;689315;28;1176;-85
2023/03/07 00:41:25;;;;;;;33.15;22.88;;;;;;;4.60;66.92;99234.00;684186;28;1193;-82
2023/03/07 00:41:46;;;;;;;34.10;22.70;;;;;;;4.56;66.99;99228.72;686952;28;1048;-85
2023/03/07 00:42:07;;;;;;;33.60;22.73;;;;;;;4.68;67.13;99239.41;684210;29;1226;-85
2023/03/07 00:42:28;;;;;;;35.03;23.60;;;;;;;4.59;67.02;99224.50;684243;29;1054;-85
2023/03/07 00:42:48;;;;;;;35.97;24.00;;;;;;;4.63;67.29;99222.91;683986;29;1220;-86
2023/03/07 00:43:10;;;;;;;35.53;24.00;;;;;;;4.68;67.24;99235.94;683879;28;1125;-86
2023/03/07 00:43:32;;;;;;;36.43;24.43;;;;;;;4.69;67.16;99248.91;683773;28;1085;-85
2023/03/07 00:43:54;;;;;;;35.13;23.75;;;;;;;4.64;67.26;99235.88;688952;28;1109;-85
2023/03/07 00:44:15;;;;;;;35.42;23.83;;;;;;;4.67;67.12;99229.03;686364;28;1314;-86
2023/03/07 00:44:35;;;;;;;34.93;23.30;;;;;;;4.62;67.26;99232.38;689001;28;1167;-86
2023/03/07 00:44:56;;;;;;;35.63;23.95;;;;;;;4.65;66.93;99228.97;691605;28;1279;-86
2023/03/07 00:45:17;;;;;;;34.60;23.40;;;;;;;4.73;67.02;99242.13;689035;28;1174;-86
2023/03/07 00:45:37;;;;;;;32.70;22.85;;;;;;;4.71;67.04;99241.22;686130;28;1267;-85
2023/03/07 00:45:59;;;;;;;31.45;22.65;;;;;;;4.67;67.16;99239.34;691558;28;1463;-85
2023/03/07 00:46:23;;;;;;;30.30;22.27;;;;;;;4.73;66.94;99236.94;688918;28;1163;-86
2023/03/07 00:46:43;;;;;;;32.25;22.50;;;;;;;4.69;67.08;99227.34;686134;28;1099;-85
2023/03/07 00:47:04;;;;;;;33.42;22.52;;;;;;;4.64;67.21;99233.28;680640;29;1135;-85
2023/03/07 00:47:25;;;;;;;34.45;23.08;;;;;;;4.63;66.89;99222.91;683615;29;788;-86
2023/03/07 00:47:46;;;;;;;35.10;23.67;;;;;;;4.72;66.89;99248.13;685981;28;1230;-85
2023/03/07 00:48:07;;;;;;;35.20;23.70;;;;;;;4.71;66.89;99230.88;688764;28;1226;-86
2023/03/07 00:48:28;;;;;;;34.67;23.00;;;;;;;4.68;67.29;99228.19;686125;28;1172;-86
2023/03/07 00:48:49;;;;;;;32.72;22.05;;;;;;;4.78;67.11;99235.34;691485;28;1113;-86
2023/03/07 00:49:11;;;;;;;32.20;22.70;;;;;;;4.76;67.17;99249.94;688833;28;1379;-85
2023/03/07 00:49:32;;;;;;;33.73;23.67;;;;;;;4.78;67.05;99237.94;686166;28;988;-86
2023/03/07 00:49:53;;;;;;;33.78;23.50;;;;;;;4.74;66.99;99236.09;686070;28;1020;-86
2023/03/07 00:50:14;;;;;;;33.57;22.97;;;;;;;4.75;67.24;99230.09;691469;28;1266;-86
2023/03/07 00:50:35;;;;;;;33.93;23.23;;;;;;;4.75;67.26;99227.50;688836;28;1011;-86
2023/03/07 00:50:56;;;;;;;33.55;23.25;;;;;;;4.81;66.92;99250.94;685970;28;1168;-86
2023/03/07 00:51:21;;;;;;;35.42;23.80;;;;;;;4.73;66.94;99224.03;683415;28;1139;-85
2023/03/07 00:51:41;;;;;;;35.08;23.38;;;;;;;4.72;67.07;99219.69;688555;28;1134;-85
2023/03/07 00:52:02;;;;;;;34.53;23.08;;;;;;;4.80;67.38;99241.44;686084;28;1091;-85
2023/03/07 00:52:23;;;;;;;33.80;22.98;;;;;;;4.72;67.18;99237.78;688756;28;1200;-85
2023/03/07 00:52:44;;;;;;;35.00;23.05;;;;;;;4.80;67.28;99251.78;683296;28;1170;-85
2023/03/07 00:53:04;;;;;;;36.22;23.30;;;;;;;4.76;67.23;99224.97;685876;28;1062;-86
2023/03/07 00:53:26;;;;;;;35.00;23.15;;;;;;;4.83;67.04;99231.19;688703;28;1286;-86
2023/03/07 00:53:47;;;;;;;33.95;23.23;;;;;;;4.78;67.00;99230.16;685723;28;1287;-86
2023/03/07 00:54:07;;;;;;;32.22;22.73;;;;;;;4.74;67.45;99225.78;685973;28;1059;-86
2023/03/07 00:54:30;;;;;;;31.73;22.10;;;;;;;4.83;67.04;99264.78;693998;28;1261;-86
2023/03/07 00:54:50;;;;;;;31.75;22.17;;;;;;;4.79;67.42;99234.53;694058;28;1085;-85
2023/03/07 00:55:11;;;;;;;33.47;23.27;;;;;;;4.82;67.16;99234.59;685805;28;1165;-86
2023/03/07 00:55:33;;;;;;;33.42;23.45;;;;;;;4.82;67.47;99224.25;683313;29;1329;-85
2023/03/07 00:55:59;;;;;;;32.20;23.07;;;;;;;4.90;66.92;99238.25;688515;28;1385;-86
2023/03/07 00:56:22;;;;;;;31.63;22.30;;;;;;;4.81;67.18;99227.69;685930;28;1215;-86
2023/03/07 00:56:43;;;;;;;33.00;22.50;;;;;;;4.89;67.29;99241.69;691148;28;1192;-85
2023/03/07 00:57:04;;;;;;;32.17;22.02;;;;;;;4.80;67.35;99228.53;694002;28;1078;-85
2023/03/07 00:57:24;;;;;;;33.30;22.60;;;;;;;4.78;67.09;99223.31;694032;28;1143;-85
2023/03/07 00:57:45;;;;;;;34.42;22.48;;;;;;;4.80;67.09;99246.63;696707;28;1108;-85
2023/03/07 00:58:06;;;;;;;35.03;23.08;;;;;;;4.91;67.24;99245.19;691298;28;1449;-86
2023/03/07 00:58:29;;;;;;;33.63;22.50;;;;;;;4.81;67.31;99226.78;691486;28;968;-86
2023/03/07 00:58:55;;;;;;;30.55;21.85;;;;;;;4.90;67.18;99238.25;685761;28;1108;-85
2023/03/07 00:59:16;;;;;;;31.63;21.70;;;;;;;4.92;67.10;99240.91;685985;28;1181;-85
2023/03/07 00:59:36;;;;;;;33.83;22.10;;;;;;;4.86;67.26;99226.09;688729;28;1160;-86
2023/03/07 00:59:57;;;;;;;34.15;22.40;;;;;;;4.86;67.43;99223.53;688601;28;1087;-85
2023/03/07 01:00:18;;;;;;;31.97;21.80;;;;;;;4.90;67.46;99230.50;688605;28;1326;-85
2023/03/07 01:00:38;;;;;;;31.67;21.55;;;;;;;4.88;67.27;99228.72;685894;28;1226;-86
2023/03/07 01:01:00;;;;;;;31.23;20.90;;;;;;;4.89;67.08;99230.47;691309;28;1052;-86
2023/03/07 01:01:24;;;;;;;32.95;21.65;;;;;;;4.90;66.97;99217.59;691218;28;1312;-85
2023/03/07 01:01:44;;;;;;;32.15;22.33;;;;;;;4.87;67.38;99230.44;691202;28;1236;-85
2023/03/07 01:02:05;;;;;;;31.73;22.25;;;;;;;4.92;67.38;99225.38;685894;28;1287;-86
2023/03/07 01:02:26;;;;;;;31.05;21.90;;;;;;;4.88;67.54;99231.28;688752;28;756;-86
2023/03/07 01:02:46;;;;;;;30.57;21.30;;;;;;;4.87;67.35;99226.97;685800;28;1207;-86
2023/03/07 01:03:07;;;;;;;31.10;21.93;;;;;;;4.89;67.02;99226.19;685939;28;1085;-85
2023/03/07 01:03:27;;;;;;;30.70;22.15;;;;;;;4.83;67.31;99215.66;683152;28;1312;-86
2023/03/07 01:03:51;;;;;;;31.20;22.60;;;;;;;4.90;67.17;99212.41;688523;28;988;-86
2023/03/07 01:04:12;;;;;;;30.75;21.80;;;;;;;4.96;67.28;99236.69;685994;28;1083;-85
2023/03/07 01:04:32;;;;;;;30.10;21.10;;;;;;;4.88;67.30;99224.44;685966;28;1243;-86
2023/03/07 01:04:53;;;;;;;30.63;20.95;;;;;;;4.91;67.22;99214.16;680444;29;1453;-86
2023/03/07 01:05:13;;;;;;;30.07;20.70;;;;;;;4.93;67.30;99217.66;686011;28;1088;-86
2023/03/07 01:05:39;;;;;;;31.25;21.17;;;;;;;4.96;67.42;99218.59;688530;28;1231;-86
2023/03/07 01:06:15;;;;;;;32.33;21.40;;;;;;;4.90;67.49;99212.41;691404;28;871;-86
2023/03/07 01:06:36;;;;;;;30.67;21.23;;;;;;;4.92;67.21;99210.72;688457;28;1305;-86
2023/03/07 01:06:56;;;;;;;30.77;21.40;;;;;;;4.91;67.51;99221.91;685968;28;1018;-86
2023/03/07 01:07:17;;;;;;;31.70;22.23;;;;;;;4.92;67.23;99223.66;685995;28;1111;-86
2023/03/07 01:07:37;;;;;;;30.77;22.17;;;;;;;5.03;67.41;99238.59;683255;29;1371;-85
2023/03/07 01:07:58;;;;;;;30.33;21.87;;;;;;;4.98;67.25;99214.31;688591;28;1191;-86
2023/03/07 01:08:20;;;;;;;30.70;21.60;;;;;;;5.06;67.37;99249.00;688606;28;1152;-86
2023/03/07 01:08:41;;;;;;;31.83;21.77;;;;;;;5.01;67.47;99220.44;688299;28;1518;-86
2023/03/07 01:09:06;;;;;;;32.40;21.73;;;;;;;4.99;67.37;99222.13;685807;28;1911;-86
2023/03/07 01:09:26;;;;;;;31.80;21.90;;;;;;;4.95;67.34;99216.84;688714;28;951;-85
2023/03/07 01:09:50;;;;;;;32.15;21.85;;;;;;;5.01;67.15;99242.81;688530;28;1024;-86
2023/03/07 01:10:12;;;;;;;31.25;21.88;;;;;;;4.97;67.46;99223.78;691274;28;1115;-85
2023/03/07 01:10:33;;;;;;;31.08;21.92;;;;;;;5.01;67.42;99229.91;683237;28;1270;-85
2023/03/07 01:10:58;;;;;;;30.65;21.88;;;;;;;4.98;67.58;99215.22;685938;28;1208;-86
2023/03/07 01:11:19;;;;;;;32.45;21.90;;;;;;;4.99;67.32;99221.25;685994;28;1205;-86
2023/03/07 01:11:40;;;;;;;33.20;22.30;;;;;;;5.06;67.34;99228.31;691396;28;1202;-86
2023/03/07 01:12:00;;;;;;;32.33;22.27;;;;;;;5.05;66.95;99226.56;685788;28;1324;-85
2023/03/07 01:12:21;;;;;;;31.27;22.10;;;;;;;5.02;67.48;99216.13;683133;29;1054;-85
2023/03/07 01:12:42;;;;;;;31.33;22.08;;;;;;;5.04;67.40;99219.66;680527;29;1179;-84
2023/03/07 01:13:05;;;;;;;31.30;21.52;;;;;;;4.97;67.23;99210.84;683242;28;1296;-86
2023/03/07 01:13:26;;;;;;;32.92;21.83;;;;;;;5.09;67.43;99227.53;688551;28;1158;-87
2023/03/07 01:13:46;;;;;;;31.30;21.35;;;;;;;5.08;67.45;99226.63;688419;28;1162;-86
2023/03/07 01:14:10;;;;;;;31.35;21.38;;;;;;;5.02;67.50;99214.44;685908;28;1180;-86
2023/03/07 01:14:30;;;;;;;30.77;21.58;;;;;;;5.03;67.44;99212.75;688628;28;1032;-86
2023/03/07 01:14:51;;;;;;;31.60;21.70;;;;;;;5.07;67.50;99225.78;688612;28;1185;-86
2023/03/07 01:15:12;;;;;;;32.47;21.80;;;;;;;5.13;67.00;99240.56;688606;28;1239;-85
2023/03/07 01:15:33;;;;;;;31.83;21.58;;;;;;;5.09;67.36;99210.28;685838;28;1226;-86
2023/03/07 01:15:53;;;;;;;32.40;21.50;;;;;;;5.13;67.37;99224.16;680484;29;1412;-86
2023/03/07 01:16:20;;;;;;;32.23;21.60;;;;;;;5.06;67.36;99202.47;688609;28;1171;-86
2023/03/07 01:16:40;;;;;;;31.23;21.55;;;;;;;5.06;67.23;99221.44;685912;28;1070;-86
2023/03/07 01:17:01;;;;;;;31.17;21.23;;;;;;;5.10;67.48;99212.06;685868;28;1158;-86
2023/03/07 01:17:22;;;;;;;32.85;21.33;;;;;;;5.11;67.34;99205.16;685969;28;954;-86
2023/03/07 01:17:43;;;;;;;33.90;21.43;;;;;;;5.10;67.48;99214.66;683223;28;1039;-86
2023/03/07 01:18:05;;;;;;;33.00;20.87;;;;;;;5.15;67.45;99220.78;691184;28;1156;-86
2023/03/07 01:18:25;;;;;;;30.65;20.42;;;;;;;5.18;67.21;99212.25;688609;28;1274;-86
2023/03/07 01:18:51;;;;;;;31.02;21.42;;;;;;;5.15;67.26;99218.19;691118;28;980;-86
2023/03/07 01:19:12;;;;;;;31.27;21.83;;;;;;;5.19;67.61;99229.50;685814;28;1391;-85
2023/03/07 01:19:33;;;;;;;32.98;21.82;;;;;;;5.17;67.62;99221.69;691201;28;1137;-86
2023/03/07 01:19:54;;;;;;;34.37;21.90;;;;;;;5.15;67.58;99212.19;691263;28;1196;-86
2023/03/07 01:20:15;;;;;;;33.60;22.30;;;;;;;5.20;67.21;99226.97;688121;28;1295;-86
2023/03/07 01:20:38;;;;;;;32.17;21.80;;;;;;;5.16;67.52;99208.75;682860;28;1021;-86
2023/03/07 01:20:58;;;;;;;32.70;21.20;;;;;;;5.17;67.66;99213.94;688156;28;1157;-86
2023/03/07 01:21:21;;;;;;;33.60;21.05;;;;;;;5.26;67.52;99220.16;686023;28;1080;-86
2023/03/07 01:21:42;;;;;;;32.58;21.25;;;;;;;5.19;67.79;99209.69;691011;28;1517;-85
2023/03/07 01:22:03;;;;;;;31.30;20.98;;;;;;;5.19;67.62;99208.81;688505;28;1232;-86
2023/03/07 01:22:24;;;;;;;31.73;21.55;;;;;;;5.23;67.25;99209.75;688675;28;1156;-86
2023/03/07 01:22:45;;;;;;;32.60;21.77;;;;;;;5.27;67.58;99221.94;688326;28;1243;-86
2023/03/07 01:23:06;;;;;;;32.80;22.10;;;;;;;5.28;67.58;99215.94;685769;28;1111;-86
2023/03/07 01:23:27;;;;;;;32.22;21.33;;;;;;;5.22;67.42;99208.91;691274;28;1355;-86
2023/03/07 01:23:47;;;;;;;30.47;20.67;;;;;;;5.23;67.89;99204.59;693837;28;1085;-86
2023/03/07 01:24:13;;;;;;;29.63;20.48;;;;;;;5.32;67.67;99212.56;691302;28;1058;-86
2023/03/07 01:24:34;;;;;;;29.80;20.60;;;;;;;5.20;67.29;99214.03;685811;28;1362;-86
2023/03/07 01:24:54;;;;;;;30.70;20.88;;;;;;;5.27;67.08;99209.88;685836;28;1235;-86
2023/03/07 01:25:15;;;;;;;30.48;21.08;;;;;;;5.32;67.52;99217.75;685927;28;1028;-86
2023/03/07 01:25:38;;;;;;;30.83;21.13;;;;;;;5.23;67.64;99199.41;688538;28;1188;-86
2023/03/07 01:25:59;;;;;;;30.50;20.10;;;;;;;5.33;67.55;99222.06;680472;28;1331;-87
2023/03/07 01:26:22;;;;;;;30.60;19.90;;;;;;;5.36;67.72;99210.94;685894;28;1221;-86
2023/03/07 01:26:43;;;;;;;29.90;19.90;;;;;;;5.34;67.41;99208.34;688425;28;1191;-86
2023/03/07 01:27:04;;;;;;;28.85;19.67;;;;;;;5.28;67.59;99208.16;685832;28;1205;-86
2023/03/07 01:27:25;;;;;;;29.80;19.90;;;;;;;5.32;67.33;99205.69;688569;28;1319;-86
2023/03/07 01:27:46;;;;;;;30.58;20.40;;;;;;;5.39;67.54;99217.06;688189;28;1543;-86
2023/03/07 01:28:11;;;;;;;31.08;20.80;;;;;;;5.36;67.63;99210.94;685843;28;1129;-86
2023/03/07 01:28:32;;;;;;;30.70;20.75;;;;;;;5.39;67.67;99223.97;683192;28;1125;-85
2023/03/07 01:29:21;;;;;;;29.10;19.75;;;;;;;5.45;67.60;99216.31;683116;29;1961;-86
2023/03/07 01:29:43;;;;;;;28.55;19.55;;;;;;;5.40;67.75;99205.00;688479;28;1005;-86
2023/03/07 01:30:06;;;;;;;29.40;19.85;;;;;;;5.36;67.59;99196.31;688373;28;1294;-86
2023/03/07 01:30:27;;;;;;;30.45;20.73;;;;;;;5.34;67.58;99193.66;685890;28;1029;-86
2023/03/07 01:30:56;;;;;;;28.05;20.42;;;;;;;5.46;67.51;99213.78;685700;28;1122;-85
2023/03/07 01:31:17;;;;;;;27.17;19.38;;;;;;;5.38;67.76;99201.47;688588;28;1082;-86
2023/03/07 01:31:38;;;;;;;26.93;19.60;;;;;;;5.43;67.64;99203.38;685860;28;1277;-86
2023/03/07 01:31:59;;;;;;;27.98;19.33;;;;;;;5.37;67.34;99189.41;691095;28;1207;-86
2023/03/07 01:32:19;;;;;;;28.23;19.30;;;;;;;5.47;67.68;99212.06;693994;28;1253;-85
2023/03/07 01:32:40;;;;;;;28.30;19.00;;;;;;;5.44;67.89;99194.75;685805;28;1194;-86
2023/03/07 01:33:01;;;;;;;28.90;19.35;;;;;;;5.47;67.68;99205.16;685833;28;1204;-86
2023/03/07 01:33:22;;;;;;;29.23;19.40;;;;;;;5.47;67.92;99205.16;685824;28;1317;-86
2023/03/07 01:33:43;;;;;;;29.13;19.30;;;;;;;5.47;67.57;99205.16;683110;29;1351;-86
2023/03/07 01:34:04;;;;;;;27.67;19.20;;;;;;;5.48;67.81;99206.06;685801;28;1078;-86
2023/03/07 01:34:27;;;;;;;26.52;19.20;;;;;;;5.45;67.59;99199.09;688618;28;1247;-86
2023/03/07 01:34:48;;;;;;;26.98;19.27;;;;;;;5.47;67.76;99209.50;690940;28;1055;-85
2023/03/07 01:35:09;;;;;;;26.65;18.70;;;;;;;5.51;67.82;99207.84;688564;28;1231;-86
2023/03/07 01:35:36;;;;;;;26.95;18.92;;;;;;;5.55;67.45;99220.00;691120;28;1484;-85
2023/03/07 01:35:57;;;;;;;26.90;19.05;;;;;;;5.54;67.66;99202.72;685773;28;1163;-86
2023/03/07 01:36:24;;;;;;;26.57;18.57;;;;;;;5.51;67.61;99200.94;685842;28;1234;-85
2023/03/07 01:36:45;;;;;;;26.35;18.35;;;;;;;5.51;68.14;99193.19;685645;28;1094;-86
2023/03/07 01:37:06;;;;;;;25.33;18.45;;;;;;;5.62;67.61;99214.13;680433;29;1069;-86
2023/03/07 01:37:26;;;;;;;25.17;18.73;;;;;;;5.65;67.87;99197.81;691167;28;1245;-86
2023/03/07 01:37:49;;;;;;;23.92;18.45;;;;;;;5.64;67.73;99206.41;691066;28;961;-86
2023/03/07 01:38:09;;;;;;;24.98;18.48;;;;;;;5.64;67.41;99204.69;688533;28;1283;-86
2023/03/07 01:38:32;;;;;;;24.70;18.33;;;;;;;5.60;67.66;99202.88;685802;28;1296;-86
2023/03/07 01:38:59;;;;;;;26.33;19.08;;;;;;;5.56;67.80;99198.47;688353;28;1357;-86
2023/03/07 01:39:20;;;;;;;26.42;19.05;;;;;;;5.49;67.90;99194.88;691222;28;1256;-86
2023/03/07 01:39:54;;;;;;;24.85;18.63;;;;;;;5.56;67.96;99193.28;683549;28;1208;-86
2023/03/07 01:40:16;;;;;;;24.33;18.42;;;;;;;5.55;68.09;99207.06;690427;28;1290;-86
2023/03/07 01:40:37;;;;;;;25.80;18.88;;;;;;;5.58;68.00;99212.34;685794;28;1262;-86
2023/03/07 01:41:02;;;;;;;26.13;18.73;;;;;;;5.57;67.99;99182.97;685787;28;1172;-87
2023/03/07 01:41:23;;;;;;;25.27;18.88;;;;;;;5.65;67.83;99206.44;685850;28;1334;-86
2023/03/07 01:41:46;;;;;;;23.80;18.50;;;;;;;5.65;67.79;99205.56;685767;28;1093;-86
2023/03/07 01:42:07;;;;;;;23.10;18.42;;;;;;;5.66;68.07;99200.44;688450;28;1230;-86
2023/03/07 01:42:31;;;;;;;22.60;18.05;;;;;;;5.64;67.92;99202.09;685863;28;1313;-86
2023/03/07 01:42:52;;;;;;;23.23;18.30;;;;;;;5.65;67.78;99203.84;691054;28;1089;-86
2023/03/07 01:43:25;;;;;;;24.55;18.83;;;;;;;5.68;67.69;99198.75;691166;28;1421;-86
2023/03/07 01:43:50;;;;;;;25.60;19.05;;;;;;;5.63;67.92;99200.34;688506;28;1084;-86
2023/03/07 01:44:19;;;;;;;25.70;18.75;;;;;;;5.73;67.53;99201.44;685819;28;1325;-86